Airfield :







YOU CAN JOIN US ON...

 
LOGIN :

Register | Disclaimer

   EN    FR    IT 

 









Legend :    VFR   Marginal VFR   IFR   Intensive IFR   Very Intensive IFR
Visi :
Ceiling :
>= 8 km
>= 3000ft
5 to 8 km
1000 to 3000 ft
1500m to 5 km
500 to 1000 ft
800 to 1500m
200 to 500 ft
< 800m
< 200 ft
Symbols :   Thunderstorms  Fog  Heavy snow  Heavy precipitations  Wind > 20 kt






- Airport Elevation : 110 ft
- IATA code : YFB


CYFB - Iqaluit

CURRENT METAR :
  • 170500Z 33006KT 15SM OVC035 M11/M15 A2984 RMK SC8 SLP111

EXPIRED METARs :
  • 170400Z 34006KT 15SM BKN035 M10/M14 A2986 RMK SC7 SLP115
  • 170300Z 34010KT 15SM -SN OVC028 M10/M14 A2987 RMK SC8 SLP120

TAF TAF CYFB
Valid from the 17 at 00:00 until the 18 at 00:00 UTC


162339Z 1700/1724 33012KT P6SM -SN OVC040
FM170500 35010KT P6SM SCT040 BKN180
TEMPO 1705/1718 P6SM -SN BKN040 BKN120
FM171800 05008KT P6SM SCT020 BKN050 BKN080
TEMPO 1718/1724 4SM -SN BKN020 OVC050 RMK NXT FCST BY 170600Z



MET'MAP, your aeronautical weather chart ! - Copyright ORBIFLY December 2007 - Disclaimer

ORBIFLY MET'MAP TEAM :

Programming & Development : Alexandra Zaïnal
Concept & Development : Baudouin d'Aumeries
Co-Development & Prog : Marc-Olivier Méhu
Technical & hardware support : Manuel Goepfert

Contact : metmap@orbifly.com




SOURCES & CREDITS :

   NOAA